Time;durP1;ratioP1;P1;durP2;ratioP2;P2;SDS_P1;SDS_P2;PMS_P1;PMS_P2;Temp;Humidity;BMP_temperature;BMP_pressure;BME280_temperature;BME280_humidity;BME280_pressure;Samples;Min_cycle;Max_cycle;Signal;HPM_P1;HPM_P2
2021/12/04 00:02:17;;;;;;;1.98;1.30;;;5.80;99.90;;;5.70;80.58;99574.59;5245620;28;20049;-71
2021/12/04 00:04:52;;;;;;;2.80;1.33;;;5.80;99.90;;;5.69;81.15;99572.84;5245221;28;20067;-71
2021/12/04 00:07:24;;;;;;;2.75;1.30;;;5.80;99.90;;;5.69;81.29;99567.66;5245594;28;20075;-70
2021/12/04 00:10:00;;;;;;;2.05;1.05;;;5.80;99.90;;;5.69;80.95;99565.97;5245463;28;20048;-70
2021/12/04 00:12:34;;;;;;;1.02;1.00;;;5.90;99.90;;;5.67;81.36;99557.28;5245813;28;20056;-71
2021/12/04 00:15:08;;;;;;;1.70;1.27;;;5.80;99.90;;;5.67;81.09;99554.69;5245419;28;20055;-71
2021/12/04 00:17:40;;;;;;;1.92;1.10;;;5.80;99.90;;;5.67;81.51;99548.63;5245196;28;20404;-71
2021/12/04 00:20:13;;;;;;;1.67;0.93;;;5.80;99.90;;;5.67;81.34;99548.63;5245348;28;20144;-71
2021/12/04 00:22:45;;;;;;;1.23;0.93;;;5.90;99.90;;;5.70;81.31;99540.97;5245543;28;20051;-69
2021/12/04 00:25:17;;;;;;;0.95;0.82;;;5.90;99.90;;;5.68;81.80;99534.88;5244950;28;20152;-69
2021/12/04 00:27:51;;;;;;;1.33;1.15;;;5.80;99.90;;;5.67;81.06;99526.25;5245196;28;20063;-70
2021/12/04 00:30:25;;;;;;;1.77;0.93;;;5.90;99.90;;;5.66;81.23;99527.06;5245380;28;20084;-70
2021/12/04 00:33:00;;;;;;;2.00;1.02;;;5.80;99.90;;;5.66;81.38;99521.00;5245059;28;20105;-70
2021/12/04 00:49:46;;;;;;;1.98;1.33;;;5.80;99.90;;;5.57;82.00;99516.41;5245100;28;20417;-70
2021/12/04 00:52:18;;;;;;;3.53;1.90;;;5.80;99.90;;;5.57;81.81;99519.00;5245099;28;20084;-74
2021/12/04 00:54:50;;;;;;;2.72;1.75;;;5.80;99.90;;;5.48;82.43;99517.78;5244505;28;20559;-71
2021/12/04 00:57:22;;;;;;;2.33;1.55;;;5.80;99.90;;;5.49;82.72;99520.44;5244837;28;20047;-70
2021/12/04 00:59:56;;;;;;;1.65;1.45;;;5.80;99.90;;;5.47;82.15;99516.91;5244962;28;20147;-70
2021/12/04 01:02:28;;;;;;;3.30;1.52;;;5.70;99.90;;;5.49;82.78;99512.69;5245278;28;20082;-69
2021/12/04 01:05:00;;;;;;;2.92;1.80;;;5.70;99.90;;;5.50;82.40;99508.41;5244718;28;20406;-70
2021/12/04 01:07:33;;;;;;;3.25;1.52;;;5.70;99.90;;;5.50;82.57;99509.28;5244865;28;20048;-70
2021/12/04 01:10:09;;;;;;;3.08;1.80;;;5.70;99.90;;;5.48;82.52;99512.63;5246090;28;20055;-70
2021/12/04 01:12:42;;;;;;;4.03;1.95;;;5.70;99.90;;;5.44;83.17;99503.91;5246572;28;20052;-71
2021/12/04 01:15:16;;;;;;;2.60;1.75;;;5.70;99.90;;;5.44;82.80;99498.72;5245779;28;20692;-70
2021/12/04 01:17:48;;;;;;;3.75;1.35;;;5.70;99.90;;;5.45;83.10;99510.81;5246405;28;20049;-70
2021/12/04 01:20:20;;;;;;;4.00;1.45;;;5.70;99.90;;;5.37;83.38;99502.81;5246727;28;20500;-70
2021/12/04 01:22:52;;;;;;;3.90;1.50;;;5.70;99.90;;;5.34;83.36;99492.34;5246801;28;20404;-70
2021/12/04 01:25:24;;;;;;;2.67;1.50;;;5.70;99.90;;;5.32;84.10;99499.16;5245892;28;20055;-70
2021/12/04 01:27:56;;;;;;;3.90;1.60;;;5.60;99.90;;;5.32;84.33;99500.88;5245380;28;20047;-69
2021/12/04 01:30:29;;;;;;;2.25;1.40;;;5.60;99.90;;;5.33;84.00;99497.47;5245816;28;20052;-71
2021/12/04 01:33:02;;;;;;;1.75;1.63;;;5.60;99.90;;;5.38;83.78;99498.50;5245850;28;20573;-70
2021/12/04 01:35:34;;;;;;;4.10;1.80;;;5.60;99.90;;;5.39;83.75;99495.09;5245259;28;20055;-70
2021/12/04 01:38:06;;;;;;;3.67;1.92;;;5.70;99.90;;;5.36;84.06;99500.19;5246893;28;20040;-70
2021/12/04 01:40:39;;;;;;;2.67;1.63;;;5.60;99.90;;;5.35;84.78;99494.13;5249587;28;20053;-70
2021/12/04 01:43:11;;;;;;;2.20;1.65;;;5.60;99.90;;;5.36;85.29;99489.84;5249909;28;20050;-69
2021/12/04 01:45:44;;;;;;;2.72;1.63;;;5.60;99.90;;;5.33;85.99;99479.38;5249268;28;20552;-70
2021/12/04 01:48:16;;;;;;;3.05;1.73;;;5.60;99.90;;;5.28;86.30;99470.59;5249664;28;20052;-70
2021/12/04 01:50:48;;;;;;;3.53;2.03;;;5.60;99.90;;;5.25;87.17;99463.63;5249401;28;20054;-71
2021/12/04 01:53:20;;;;;;;2.95;1.70;;;5.60;99.90;;;5.22;87.33;99462.66;5249843;28;20049;-70
2021/12/04 01:55:55;;;;;;;3.10;1.92;;;5.50;99.90;;;5.18;87.83;99459.06;5249082;28;20047;-70
2021/12/04 01:58:29;;;;;;;3.70;2.03;;;5.50;99.90;;;5.13;88.89;99461.47;5249290;28;20047;-70
2021/12/04 02:01:03;;;;;;;3.58;2.03;;;5.50;99.90;;;5.13;89.11;99458.03;5249487;28;20040;-71
2021/12/04 02:03:35;;;;;;;2.60;1.70;;;5.40;99.90;;;5.11;89.34;99451.94;5249130;28;20828;-70
2021/12/04 02:06:07;;;;;;;4.13;2.00;;;5.40;99.90;;;5.09;89.53;99451.88;5249032;28;20041;-70
2021/12/04 02:08:39;;;;;;;4.53;2.00;;;5.40;99.90;;;5.10;90.08;99453.63;5248746;28;20041;-72
2021/12/04 02:11:13;;;;;;;3.65;2.00;;;5.40;99.90;;;5.12;90.25;99444.22;5249190;28;20076;-70
2021/12/04 02:13:45;;;;;;;4.93;2.10;;;5.40;99.90;;;5.13;89.87;99445.09;5248956;28;20133;-70
2021/12/04 02:16:21;;;;;;;2.83;1.95;;;5.40;99.90;;;5.07;90.55;99432.84;5248953;28;20052;-69
2021/12/04 02:18:53;;;;;;;5.85;2.22;;;5.40;99.90;;;5.06;90.43;99432.81;5248705;28;20043;-70
2021/12/04 02:21:27;;;;;;;4.97;2.05;;;5.40;99.90;;;5.07;90.67;99434.56;5249282;28;20044;-69
2021/12/04 02:23:59;;;;;;;2.97;1.85;;;5.30;99.90;;;5.04;90.94;99425.00;5248236;28;20063;-71
2021/12/04 02:26:32;;;;;;;3.90;1.80;;;5.40;99.90;;;5.02;90.64;99431.84;5237115;28;20040;-69
2021/12/04 02:29:04;;;;;;;2.83;1.83;;;5.30;99.90;;;5.00;90.95;99423.13;5238910;28;20044;-70
2021/12/04 02:31:36;;;;;;;3.20;1.92;;;5.30;99.90;;;5.01;91.06;99413.69;5238389;28;20140;-69
2021/12/04 02:34:08;;;;;;;3.75;2.10;;;5.30;99.90;;;5.02;91.29;99416.34;5236885;28;20045;-69
2021/12/04 02:36:42;;;;;;;3.78;2.00;;;5.30;99.90;;;5.03;91.13;99407.75;5238359;28;20048;-70
2021/12/04 02:39:23;;;;;;;1.98;1.40;;;5.30;99.90;;;5.00;91.80;99402.47;5238755;28;20455;-70
2021/12/04 02:41:56;;;;;;;2.92;1.67;;;5.30;99.90;;;4.98;91.64;99406.72;5239160;28;20052;-70
2021/12/04 02:44:35;;;;;;;3.00;1.92;;;5.30;99.90;;;4.97;91.98;99399.81;5241448;28;20135;-71
2021/12/04 02:47:08;;;;;;;3.80;2.10;;;5.30;99.90;;;5.00;91.92;99402.47;5238909;28;20048;-71
2021/12/04 02:49:40;;;;;;;4.28;2.17;;;5.30;99.90;;;4.99;92.04;99394.69;5237622;28;20049;-70
2021/12/04 02:52:15;;;;;;;2.88;1.80;;;5.30;99.90;;;5.01;91.60;99393.91;5237193;28;20083;-70
2021/12/04 02:54:49;;;;;;;3.33;2.20;;;5.20;99.90;;;4.98;91.73;99374.84;5248077;28;20044;-70
2021/12/04 02:57:21;;;;;;;3.80;2.25;;;5.30;99.90;;;4.97;92.10;99371.41;5248437;28;20131;-70
2021/12/04 02:59:54;;;;;;;3.55;1.95;;;5.30;99.90;;;5.01;92.10;99368.06;5247818;28;20452;-71
2021/12/04 03:02:26;;;;;;;5.72;2.13;;;5.30;99.90;;;5.03;92.44;99370.72;5248591;28;20125;-70
2021/12/04 03:05:02;;;;;;;5.18;2.15;;;5.30;99.90;;;5.02;92.35;99369.84;5247552;28;20044;-71
2021/12/04 03:07:36;;;;;;;5.53;2.00;;;5.30;99.90;;;5.01;92.01;99368.06;5247993;28;20048;-71
2021/12/04 03:10:09;;;;;;;2.35;1.70;;;5.30;99.90;;;4.99;92.45;99364.56;5248362;28;20040;-70
2021/12/04 03:12:41;;;;;;;4.03;1.85;;;5.30;99.90;;;4.99;92.47;99356.81;5248000;28;20449;-70
2021/12/04 03:15:13;;;;;;;4.13;1.65;;;5.30;99.90;;;4.99;92.48;99351.66;5247525;28;20044;-70
2021/12/04 03:17:45;;;;;;;4.30;1.80;;;5.20;99.90;;;4.98;92.46;99347.31;5248117;28;20049;-70
2021/12/04 03:20:18;;;;;;;2.20;1.70;;;5.30;99.90;;;4.94;92.61;99340.28;5248041;28;20496;-70
2021/12/04 03:22:58;;;;;;;3.45;1.83;;;5.30;99.90;;;4.93;92.34;99342.81;5247900;28;20037;-69
2021/12/04 03:25:31;;;;;;;2.58;1.48;;;5.20;99.90;;;4.90;92.91;99333.28;5238578;28;20057;-71
2021/12/04 03:28:06;;;;;;;2.15;1.58;;;5.20;99.90;;;4.89;92.60;99336.69;5230377;28;20413;-70
2021/12/04 03:30:42;;;;;;;2.92;1.63;;;5.20;99.90;;;4.90;93.06;99328.13;5226785;28;20513;-70
2021/12/04 03:41:45;;;;;;;2.58;1.80;;;5.20;99.90;;;4.94;93.05;99314.47;5231049;28;20060;-70
2021/12/04 03:44:17;;;;;;;2.55;1.75;;;5.20;99.90;;;4.94;92.73;99319.63;5247249;28;20044;-69
2021/12/04 03:46:50;;;;;;;4.53;1.88;;;5.20;99.90;;;4.96;92.78;99307.66;5248105;28;20056;-70
2021/12/04 03:49:22;;;;;;;2.70;1.77;;;5.20;99.90;;;5.00;92.68;99304.34;5247620;28;20047;-71
2021/12/04 03:51:54;;;;;;;3.13;1.48;;;5.30;99.90;;;5.04;92.61;99298.47;5247932;28;20088;-70
2021/12/04 03:54:28;;;;;;;3.40;1.83;;;5.30;99.90;;;5.05;92.25;99295.03;5247437;28;20045;-70
2021/12/04 03:57:04;;;;;;;3.05;1.52;;;5.30;99.90;;;5.06;92.44;99283.88;5247740;28;20056;-70
2021/12/04 03:59:42;;;;;;;3.00;1.58;;;5.30;99.90;;;5.06;92.58;99277.84;5247309;28;20481;-70
2021/12/04 04:02:17;;;;;;;4.55;1.95;;;5.30;99.90;;;5.06;92.37;99273.56;5247465;28;20555;-70
2021/12/04 04:04:49;;;;;;;2.70;1.75;;;5.30;99.90;;;5.08;92.83;99282.22;5247381;28;20491;-71
2021/12/04 04:07:21;;;;;;;2.65;1.65;;;5.30;99.90;;;5.11;92.45;99272.00;5247456;28;20685;-69
2021/12/04 04:09:55;;;;;;;2.67;1.75;;;5.30;99.90;;;5.04;92.58;99277.81;5247260;28;20045;-69
2021/12/04 04:12:27;;;;;;;1.50;1.33;;;5.30;99.90;;;5.05;92.30;99276.09;5247272;28;20061;-70
2021/12/04 04:14:59;;;;;;;2.58;1.50;;;5.30;99.90;;;5.01;92.09;99269.06;5247248;28;20048;-70
2021/12/04 04:17:32;;;;;;;2.65;1.20;;;5.30;99.90;;;5.03;92.56;99270.00;5247013;28;20054;-70
2021/12/04 04:20:05;;;;;;;2.53;1.55;;;5.30;99.90;;;5.00;92.33;99270.78;5246887;28;20044;-72
2021/12/04 04:22:37;;;;;;;2.00;1.40;;;5.30;99.90;;;5.03;91.97;99278.63;5247239;28;20058;-70
2021/12/04 04:25:13;;;;;;;2.25;1.42;;;5.30;99.90;;;4.99;92.13;99271.59;5246619;28;20048;-70
2021/12/04 04:27:46;;;;;;;2.10;1.52;;;5.30;99.90;;;4.96;92.15;99260.31;5246948;28;20054;-70
2021/12/04 04:30:20;;;;;;;2.05;1.52;;;5.20;99.90;;;4.95;92.54;99256.81;5247035;28;20044;-69
2021/12/04 04:32:54;;;;;;;2.30;1.35;;;5.30;99.90;;;4.96;92.40;99255.16;5247408;28;20045;-70
2021/12/04 04:35:27;;;;;;;2.83;1.80;;;5.30;99.90;;;4.92;92.42;99259.31;5246111;28;20052;-70
2021/12/04 04:38:06;;;;;;;1.73;1.35;;;5.30;99.90;;;4.94;92.61;99255.06;5246549;28;20052;-70
2021/12/04 04:57:49;;;;;;;2.67;1.65;;;5.30;99.90;;;4.98;92.40;99246.59;5246541;28;20051;-70
2021/12/04 05:00:50;;;;;;;2.03;1.40;;;5.30;99.90;;;5.01;92.51;99251.84;5246261;28;20045;-70
2021/12/04 05:11:59;;;;;;;2.78;1.63;;;5.40;99.90;;;5.11;91.82;99216.88;5246514;28;20072;-70
2021/12/04 05:14:33;;;;;;;2.50;1.73;;;5.40;99.90;;;5.10;91.83;99223.75;5245991;28;20141;-69
2021/12/04 05:17:08;;;;;;;3.70;1.83;;;5.30;99.90;;;5.08;92.16;99220.22;5246160;28;20055;-69
2021/12/04 05:19:43;;;;;;;4.10;1.52;;;5.30;99.90;;;5.09;91.95;99219.44;5246280;28;20045;-69
2021/12/04 05:22:16;;;;;;;2.72;1.85;;;5.40;99.90;;;5.09;91.93;99224.59;5246711;28;20051;-70
2021/12/04 05:24:49;;;;;;;2.50;1.88;;;5.30;99.90;;;5.11;92.22;99219.47;5245842;28;20048;-70
2021/12/04 05:27:21;;;;;;;2.83;1.73;;;5.40;99.90;;;5.11;92.16;99215.19;5246385;28;20080;-69
2021/12/04 05:29:54;;;;;;;2.83;1.90;;;5.40;99.90;;;5.13;91.79;99210.06;5246440;28;20044;-71
2021/12/04 05:32:26;;;;;;;2.85;1.73;;;5.40;99.90;;;5.10;91.94;99217.72;5246538;28;20048;-70
2021/12/04 05:34:58;;;;;;;3.53;2.25;;;5.30;99.90;;;5.11;92.20;99214.31;5245744;28;20052;-70
2021/12/04 05:37:30;;;;;;;2.75;1.45;;;5.40;99.90;;;5.09;91.95;99214.25;5246366;28;20127;-70
2021/12/04 05:40:03;;;;;;;4.95;1.60;;;5.40;99.90;;;5.09;92.25;99211.69;5245518;28;20045;-69
2021/12/04 05:42:35;;;;;;;3.20;1.90;;;5.40;99.90;;;5.08;92.42;99209.03;5245377;28;20131;-69
2021/12/04 05:45:16;;;;;;;2.95;1.60;;;5.40;99.90;;;5.04;92.39;99202.91;5245834;28;20055;-70
2021/12/04 05:47:53;;;;;;;2.33;1.48;;;5.40;99.90;;;5.03;92.29;99198.56;5246542;28;20400;-70
2021/12/04 05:50:40;;;;;;;2.25;1.75;;;5.40;99.90;;;5.06;92.57;99201.25;5245480;28;20056;-69
2021/12/04 05:53:18;;;;;;;3.17;1.58;;;5.30;99.90;;;5.06;92.26;99209.00;5245949;28;20055;-69
2021/12/04 05:55:54;;;;;;;2.60;2.00;;;5.30;99.90;;;5.10;91.94;99208.25;5245525;28;20052;-70
2021/12/04 05:58:27;;;;;;;;;;;5.40;99.90;;;5.06;92.31;99198.66;5246350;28;20059;-70
2021/12/04 06:01:04;;;;;;;2.67;1.98;;;5.30;99.90;;;5.03;92.17;99201.16;5245764;28;19920;-70
2021/12/04 06:03:37;;;;;;;4.03;1.63;;;5.30;99.90;;;5.05;91.80;99204.66;5245767;28;20139;-69
2021/12/04 06:06:09;;;;;;;4.78;2.13;;;5.30;99.90;;;5.03;92.15;99198.56;5245616;28;20405;-71
2021/12/04 06:08:41;;;;;;;2.85;1.77;;;5.30;99.90;;;5.06;91.91;99195.19;5245754;28;20045;-70
2021/12/04 06:11:14;;;;;;;3.55;1.77;;;5.30;99.90;;;5.08;91.81;99199.56;5245674;28;20052;-70
2021/12/04 06:13:46;;;;;;;2.72;2.13;;;5.40;99.90;;;5.10;92.00;99197.94;5245549;28;20131;-71
2021/12/04 06:16:19;;;;;;;4.00;2.03;;;5.30;99.90;;;5.09;91.63;99196.19;5246007;28;20511;-70
2021/12/04 06:18:53;;;;;;;4.38;1.75;;;5.40;99.90;;;5.09;92.11;99196.19;5245529;28;20408;-70
2021/12/04 06:24:15;;;;;;;3.42;1.73;;;5.30;99.90;;;5.06;92.24;99206.41;5247122;28;20051;-70
2021/12/04 06:26:47;;;;;;;3.30;1.83;;;5.30;99.90;;;5.08;92.04;99204.72;5249570;28;20052;-70
2021/12/04 06:29:19;;;;;;;3.53;1.85;;;5.30;99.90;;;5.07;91.76;99208.16;5249451;28;20115;-70
2021/12/04 06:31:52;;;;;;;5.50;2.40;;;5.30;99.90;;;5.07;91.94;99205.56;5249539;28;20051;-70
2021/12/04 06:34:24;;;;;;;3.53;1.75;;;5.30;99.90;;;5.09;91.92;99196.19;5249092;28;20048;-69
2021/12/04 06:36:56;;;;;;;3.38;2.22;;;5.30;99.90;;;5.13;91.85;99202.31;5249540;28;20489;-70
2021/12/04 06:39:28;;;;;;;3.67;2.05;;;5.30;99.90;;;5.04;91.98;99195.16;5249229;28;20051;-71
2021/12/04 06:42:00;;;;;;;3.13;1.63;;;5.30;99.90;;;5.03;92.22;99200.28;5249241;28;20054;-70
2021/12/04 06:44:32;;;;;;;3.72;2.13;;;5.30;99.90;;;5.02;92.28;99190.75;5248516;28;20044;-70
2021/12/04 06:47:06;;;;;;;4.30;1.92;;;5.30;99.90;;;5.01;92.33;99192.47;5249358;28;20456;-70
2021/12/04 06:49:40;;;;;;;3.53;2.00;;;5.30;99.90;;;5.02;92.00;99202.00;5249035;28;20566;-72
2021/12/04 06:52:16;;;;;;;3.97;2.20;;;5.30;99.90;;;5.02;91.91;99204.56;5249013;28;20106;-70
2021/12/04 06:54:54;;;;;;;3.67;2.15;;;5.30;99.90;;;5.01;92.69;99207.97;5248369;28;20467;-71
2021/12/04 06:57:28;;;;;;;2.63;1.80;;;5.30;99.90;;;5.00;92.08;99206.22;5248041;28;20048;-74
2021/12/04 07:00:00;;;;;;;3.88;2.10;;;5.30;99.90;;;5.04;92.00;99210.66;5248677;28;20090;-73
2021/12/04 07:02:34;;;;;;;2.70;1.85;;;5.30;99.90;;;5.04;92.04;99202.03;5248758;28;20484;-74
2021/12/04 07:05:07;;;;;;;3.17;2.05;;;5.30;99.90;;;5.04;91.99;99208.06;5248459;28;20052;-73
2021/12/04 07:07:40;;;;;;;5.22;2.33;;;5.30;99.90;;;5.03;91.78;99196.00;5247847;28;20048;-73
2021/12/04 07:10:12;;;;;;;3.67;1.98;;;5.30;99.90;;;5.02;91.98;99198.50;5234128;22;20053;-87
2021/12/04 07:12:44;;;;;;;5.60;2.30;;;5.30;99.90;;;5.02;92.03;99199.41;5374244;22;20055;-77
2021/12/04 07:15:16;;;;;;;3.83;1.83;;;5.30;99.90;;;4.99;91.86;99194.13;5247886;28;20048;-76
2021/12/04 07:17:50;;;;;;;2.75;2.22;;;5.30;99.90;;;4.99;92.36;99193.25;5248146;28;20051;-76
2021/12/04 07:20:23;;;;;;;5.30;2.47;;;5.30;99.90;;;4.99;92.15;99191.53;5247910;28;20045;-76
2021/12/04 07:22:55;;;;;;;5.78;2.33;;;5.30;99.90;;;5.01;92.15;99197.63;5248366;28;20462;-75
2021/12/04 07:25:28;;;;;;;2.85;1.90;;;5.20;99.90;;;5.06;91.78;99200.38;5247845;28;20207;-77
2021/12/04 07:28:00;;;;;;;4.93;2.58;;;5.30;99.90;;;5.06;92.17;99201.25;5247912;28;20131;-74
2021/12/04 07:30:32;;;;;;;5.43;2.45;;;5.30;99.90;;;5.06;91.98;99197.78;5248173;28;20485;-74
2021/12/04 07:33:05;;;;;;;6.05;2.58;;;5.30;99.90;;;5.08;91.77;99196.97;5248256;28;20051;-74
2021/12/04 07:35:40;;;;;;;4.28;2.33;;;5.30;99.90;;;5.07;91.39;99191.78;5247554;28;20059;-73
2021/12/04 07:38:14;;;;;;;;;;;5.30;99.90;;;5.04;91.64;99187.41;5248932;28;20127;-74
2021/12/04 07:40:46;;;;;;;4.05;2.22;;;5.30;99.90;;;5.04;91.68;99190.00;5247990;28;19921;-75
2021/12/04 07:43:18;;;;;;;4.35;2.25;;;5.30;99.90;;;5.07;91.21;99191.78;5248042;28;20080;-75
2021/12/04 07:45:50;;;;;;;4.55;2.55;;;5.30;99.90;;;5.04;91.46;99197.75;5247390;28;20044;-76
2021/12/04 07:48:24;;;;;;;3.95;2.10;;;5.30;99.90;;;5.01;91.83;99202.78;5247595;28;20052;-75
2021/12/04 07:50:56;;;;;;;2.85;2.00;;;5.30;99.90;;;5.01;91.89;99196.75;5247519;28;20055;-76
2021/12/04 07:53:29;;;;;;;4.47;2.17;;;5.30;99.90;;;4.99;92.01;99191.53;5247859;28;20139;-75
2021/12/04 07:56:01;;;;;;;3.25;2.35;;;5.30;99.90;;;4.96;91.64;99186.31;5247223;28;20489;-74
2021/12/04 07:58:34;;;;;;;4.18;2.25;;;5.30;99.90;;;4.98;91.50;99189.81;5247046;28;20102;-74
2021/12/04 08:01:06;;;;;;;3.83;2.03;;;5.30;99.90;;;5.00;91.87;99185.53;5247492;28;20052;-73
2021/12/04 08:03:40;;;;;;;3.45;2.33;;;5.30;99.90;;;5.07;91.91;99177.16;5247748;28;20059;-73
2021/12/04 08:06:12;;;;;;;3.85;2.13;;;5.40;99.90;;;5.13;91.73;99174.78;5247090;28;20075;-74
2021/12/04 08:08:44;;;;;;;4.10;2.13;;;5.40;99.90;;;5.24;91.35;99179.41;5247223;28;20409;-75
2021/12/04 08:11:17;;;;;;;3.35;1.92;;;5.40;99.90;;;5.31;90.94;99178.75;5247009;28;20044;-74
2021/12/04 08:13:49;;;;;;;2.92;2.42;;;5.50;99.90;;;5.41;90.81;99183.34;5246981;28;20061;-75
2021/12/04 08:16:24;;;;;;;4.25;2.10;;;5.50;99.90;;;5.51;90.45;99189.66;5247037;28;20131;-74
2021/12/04 08:18:58;;;;;;;4.72;2.55;;;5.60;99.90;;;5.45;89.52;99195.53;5246942;28;20493;-76
2021/12/04 08:21:30;;;;;;;4.07;2.40;;;5.60;99.90;;;5.43;89.40;99200.66;5246918;28;20048;-76
2021/12/04 08:24:02;;;;;;;5.97;2.97;;;5.60;99.90;;;5.39;89.42;99185.00;5246543;28;20080;-76
2021/12/04 08:26:35;;;;;;;4.28;2.67;;;5.60;99.90;;;5.34;89.57;99182.28;5247397;28;20139;-77
2021/12/04 08:29:09;;;;;;;3.85;2.45;;;5.60;99.90;;;5.38;89.79;99176.38;5245293;28;20139;-76
2021/12/04 08:31:42;;;;;;;4.15;2.67;;;5.60;99.90;;;5.45;89.60;99186.06;5246753;28;20047;-77
2021/12/04 08:34:15;;;;;;;5.03;2.72;;;5.60;99.90;;;5.58;89.53;99184.72;5246422;28;20055;-77
2021/12/04 08:36:50;;;;;;;3.78;2.30;;;5.70;99.90;;;5.64;89.63;99182.31;5246929;28;20529;-76
2021/12/04 08:39:23;;;;;;;3.97;2.35;;;5.80;99.90;;;5.69;88.90;99180.75;5246556;28;20135;-76
2021/12/04 08:41:55;;;;;;;4.63;2.10;;;5.80;99.90;;;5.79;88.71;99181.00;5246776;28;20063;-77
2021/12/04 08:44:27;;;;;;;4.55;2.60;;;5.90;99.90;;;5.83;88.80;99183.72;5245850;28;20572;-76
2021/12/04 08:46:59;;;;;;;2.38;1.80;;;5.90;99.90;;;5.86;88.63;99180.31;5246297;28;20060;-77
2021/12/04 08:49:33;;;;;;;3.25;2.00;;;6.00;99.90;;;5.76;87.43;99170.56;5246939;28;20079;-76
2021/12/04 08:52:07;;;;;;;2.92;2.10;;;6.00;99.90;;;5.77;87.99;99167.16;5246457;28;20573;-76
2021/12/04 08:54:39;;;;;;;2.20;1.70;;;6.00;99.90;;;5.86;88.05;99172.56;5246577;28;20060;-74
2021/12/04 08:57:12;;;;;;;2.90;2.13;;;6.00;99.90;;;5.96;86.72;99174.63;5228640;28;20156;-75
2021/12/04 08:59:47;;;;;;;4.18;1.92;;;6.10;99.90;;;6.02;86.98;99168.75;5225484;28;20052;-74
2021/12/04 09:02:19;;;;;;;;;;;6.10;99.90;;;6.09;86.46;99165.47;5226551;28;20056;-72
2021/12/04 09:04:54;;;;;;;3.28;1.95;;;6.20;99.90;;;6.07;85.83;99157.69;5225826;28;19921;-72
2021/12/04 09:07:26;;;;;;;2.42;1.63;;;6.20;99.90;;;6.01;85.40;99160.09;5226204;28;20460;-75
2021/12/04 09:09:58;;;;;;;3.03;2.08;;;6.10;99.90;;;6.00;86.26;99166.13;5225726;28;20071;-73
2021/12/04 09:12:33;;;;;;;2.22;1.73;;;6.20;99.90;;;6.07;86.28;99173.22;5225766;28;20049;-74
2021/12/04 09:15:10;;;;;;;2.20;1.58;;;6.20;99.90;;;6.17;85.84;99163.97;5225777;28;20053;-72
2021/12/04 09:17:42;;;;;;;3.45;2.08;;;6.30;99.90;;;6.16;85.48;99170.84;5225471;28;20052;-73
2021/12/04 09:20:17;;;;;;;3.28;2.05;;;6.20;99.90;;;6.18;85.16;99179.53;5225528;28;20045;-74
2021/12/04 09:22:49;;;;;;;4.82;2.05;;;6.30;99.90;;;6.09;85.13;99175.81;5225423;28;20053;-75
2021/12/04 09:25:24;;;;;;;2.88;2.47;;;6.20;99.90;;;6.13;85.06;99168.19;5225299;28;20136;-74
2021/12/04 09:28:07;;;;;;;3.20;2.03;;;6.30;99.90;;;6.28;85.30;99172.03;5225000;28;20049;-71
2021/12/04 09:30:56;;;;;;;4.05;2.22;;;6.30;99.90;;;6.28;84.90;99161.66;5225438;28;20076;-74
2021/12/04 10:02:08;;;;;;;5.47;2.13;;;6.90;99.90;;;6.94;81.77;99127.91;5165484;28;20085;-71
2021/12/04 10:19:56;;;;;;;2.50;1.70;;;6.60;99.90;;;6.47;82.64;99081.06;5264828;27;20881;-73
2021/12/04 10:22:35;;;;;;;2.13;0.90;;;6.60;99.90;;;7.01;92.72;99084.03;5243381;28;20098;-68
2021/12/04 10:33:45;;;;;;;2.25;1.63;;;7.80;99.90;;;7.28;79.62;99049.16;5244097;28;20061;-75
2021/12/04 10:36:31;;;;;;;1.88;1.52;;;7.60;99.90;;;7.20;80.04;99043.81;5244616;28;20136;-76
2021/12/04 10:39:05;;;;;;;2.70;1.70;;;7.40;99.90;;;7.15;80.27;99029.03;5244471;28;20051;-76
2021/12/04 10:41:40;;;;;;;2.08;1.73;;;7.40;99.90;;;7.07;80.07;99028.88;5243582;28;20049;-74
2021/12/04 10:44:17;;;;;;;3.42;1.65;;;7.20;99.90;;;6.95;80.08;99013.06;5243573;28;20398;-75
2021/12/04 10:47:01;;;;;;;2.60;1.45;;;7.20;99.90;;;6.98;80.51;99002.78;5243920;28;20045;-75
2021/12/04 10:49:46;;;;;;;2.30;1.40;;;7.10;99.90;;;6.87;80.46;99007.75;5243930;28;20060;-72
2021/12/04 10:52:29;;;;;;;2.83;1.35;;;7.00;99.90;;;6.77;80.62;99004.06;5243890;28;20048;-76
2021/12/04 10:55:16;;;;;;;1.83;1.30;;;7.00;99.90;;;6.67;81.13;99001.25;5243534;28;20495;-75
2021/12/04 11:00:48;;;;;;;1.52;1.40;;;6.80;99.90;;;6.52;82.23;98999.22;5243172;28;20118;-75
2021/12/04 11:03:33;;;;;;;2.10;1.40;;;6.70;99.90;;;6.49;81.99;98986.19;5243868;28;20110;-75
2021/12/04 11:38:09;;;;;;;3.53;1.80;;;7.20;99.90;;;7.12;82.77;98928.81;5208613;28;20050;-75
2021/12/04 11:43:49;;;;;;;2.92;1.35;;;7.30;99.90;;;7.09;81.84;98908.00;5208956;28;20051;-74
2021/12/04 11:46:24;;;;;;;2.65;1.63;;;7.20;99.90;;;7.00;82.13;98907.84;5209260;28;20049;-75
2021/12/04 11:48:59;;;;;;;2.03;1.70;;;7.20;99.90;;;6.96;82.65;98898.25;5209404;28;20053;-75
2021/12/04 11:51:31;;;;;;;2.72;1.52;;;7.10;99.90;;;6.90;82.74;98890.38;5210191;28;20065;-76
2021/12/04 11:54:12;;;;;;;3.08;1.63;;;7.10;99.90;;;6.90;82.71;98890.38;5208930;28;20091;-74
2021/12/04 11:56:44;;;;;;;2.30;1.65;;;7.00;99.90;;;6.89;83.00;98875.69;5209452;28;20052;-76
2021/12/04 11:59:28;;;;;;;2.35;1.63;;;7.10;99.90;;;6.85;83.09;98871.31;5209581;28;20132;-76
2021/12/04 12:02:02;;;;;;;2.60;1.52;;;7.00;99.90;;;6.95;82.92;98874.06;5209735;28;20132;-77
2021/12/04 12:04:38;;;;;;;1.80;1.48;;;7.00;99.90;;;6.92;82.44;98868.84;5210033;28;20064;-77
2021/12/04 12:07:14;;;;;;;3.28;1.45;;;7.00;99.90;;;6.79;82.96;98857.38;5209914;28;20049;-76
2021/12/04 12:09:50;;;;;;;3.15;1.55;;;7.00;99.90;;;6.87;83.34;98861.84;5209421;28;20417;-79
2021/12/04 12:12:33;;;;;;;1.92;1.40;;;7.00;99.90;;;7.01;82.82;98852.59;5204351;28;20049;-76
2021/12/04 12:15:26;;;;;;;2.60;1.50;;;7.00;99.90;;;6.93;82.71;98849.00;5212748;28;20048;-76
2021/12/04 12:18:12;;;;;;;1.75;1.23;;;7.00;99.90;;;6.88;83.56;98846.31;5229894;28;20139;-78
2021/12/04 12:20:49;;;;;;;1.92;1.50;;;7.00;99.90;;;6.70;83.47;98839.06;5229277;28;20137;-73
2021/12/04 12:23:24;;;;;;;1.75;1.25;;;7.00;99.90;;;6.73;84.00;98836.56;5228938;28;20057;-75
2021/12/04 12:26:11;;;;;;;;;;;6.90;99.90;;;6.63;84.41;98849.28;5228082;28;20053;-75
2021/12/04 12:31:55;;;;;;;1.83;1.20;;;6.90;99.90;;;6.61;84.88;98833.72;5229346;28;20075;-76
2021/12/04 12:37:28;;;;;;;2.53;2.13;;;6.80;99.90;;;6.59;85.51;98822.47;5206942;28;20109;-75
2021/12/04 12:40:09;;;;;;;2.22;1.40;;;6.80;99.90;;;6.59;85.44;98811.25;5228195;28;20049;-76
2021/12/04 12:42:43;;;;;;;2.58;1.73;;;6.80;99.90;;;6.58;85.58;98810.34;5227251;28;20052;-74
2021/12/04 12:45:23;;;;;;;3.38;1.52;;;6.80;99.90;;;6.54;85.77;98813.75;5227584;28;20052;-76
2021/12/04 12:48:04;;;;;;;3.60;1.92;;;6.80;99.90;;;6.55;85.90;98815.50;5228866;28;20057;-78
2021/12/04 12:50:41;;;;;;;3.28;1.60;;;6.80;99.90;;;6.50;85.96;98799.84;5228622;28;20050;-76
2021/12/04 12:53:18;;;;;;;3.15;1.50;;;6.70;99.90;;;6.49;86.44;98792.94;5229209;28;20067;-75
2021/12/04 12:55:53;;;;;;;3.47;1.85;;;6.70;99.90;;;6.51;86.64;98792.97;5227624;28;20052;-76
2021/12/04 12:58:31;;;;;;;3.10;2.03;;;6.70;99.90;;;6.47;87.30;98789.47;5227917;28;20060;-75
2021/12/04 13:12:49;;;;;;;3.88;2.13;;;6.70;99.90;;;6.36;87.46;98814.25;5189142;28;20099;-76
2021/12/04 13:15:35;;;;;;;4.03;1.85;;;6.60;99.90;;;6.43;88.09;98820.41;5186318;28;20050;-75
2021/12/04 13:18:15;;;;;;;4.35;1.80;;;6.60;99.90;;;6.53;87.39;98817.19;5186257;28;20050;-75
2021/12/04 13:20:50;;;;;;;2.38;1.42;;;6.70;99.90;;;6.53;87.92;98806.84;5186821;28;20054;-76
2021/12/04 13:23:23;;;;;;;3.03;1.40;;;6.70;99.90;;;6.55;87.86;98802.53;5186468;28;20500;-76
2021/12/04 13:26:00;;;;;;;2.00;1.40;;;6.70;99.90;;;6.56;87.87;98801.69;5186190;28;20052;-75
2021/12/04 13:28:36;;;;;;;2.45;1.52;;;6.70;99.90;;;6.55;89.03;98802.53;5185558;28;20056;-76
2021/12/04 13:31:08;;;;;;;2.58;1.60;;;6.70;99.90;;;6.60;88.67;98800.94;5185392;28;20042;-76
2021/12/04 13:33:47;;;;;;;1.92;1.60;;;6.70;99.90;;;6.63;89.42;98800.09;5185176;28;20406;-76
2021/12/04 13:36:23;;;;;;;2.92;1.80;;;6.70;99.90;;;6.58;89.21;98797.41;5185631;28;20050;-76
2021/12/04 13:38:58;;;;;;;2.90;1.83;;;6.80;99.90;;;6.56;89.94;98781.00;5185790;28;20050;-75
2021/12/04 13:41:31;;;;;;;;;;;6.70;99.90;;;6.58;90.72;98779.28;5186025;28;20054;-74
2021/12/04 13:44:08;;;;;;;5.60;2.88;;;6.80;99.90;;;6.56;91.37;98786.16;5184835;28;19922;-76
2021/12/04 13:46:41;;;;;;;6.00;3.03;;;6.70;99.90;;;6.49;92.07;98780.00;5185144;28;20610;-75